sim
Sign-in with your pilot id or email,
or register
Callsign
Passwort

Schedule Details

Flight Number: EWG242
Departure: Cologne Bonn Airport (EDDK) at 09:15
Arrival: Fuerteventura Airport (GCFV) at 13:50
Route: Eurowings Passenger Schedule. Enter filed route here before submitting Pirep.

Weather Information
Getting current METAR information for EDDK 222220Z 06001KT CAVOK 18/15 Q1023 NOSIG
Getting current METAR information for GCFV 222230Z 36018KT CAVOK 21/17 Q1018

Schedule Frequency

Route Map